Time;durP1;ratioP1;P1;durP2;ratioP2;P2;SDS_P1;SDS_P2;PMS_P1;PMS_P2;Temp;Humidity;BMP_temperature;BMP_pressure;BME280_temperature;BME280_humidity;BME280_pressure;Samples;Min_cycle;Max_cycle;Signal;HPM_P1;HPM_P2
2022/12/09 00:00:23;;;;;;;37.40;20.88;;;-3.50;99.90;;;;;;5083849;28;20363;-83
2022/12/09 00:02:49;;;;;;;42.20;22.35;;;-3.40;99.90;;;;;;5093269;28;20047;-82
2022/12/09 00:05:15;;;;;;;25.60;14.85;;;-3.50;99.90;;;;;;5075949;28;20471;-83
2022/12/09 00:07:40;;;;;;;40.22;24.33;;;-3.50;99.90;;;;;;5093253;28;20032;-83
2022/12/09 00:10:07;;;;;;;36.00;22.33;;;-3.50;99.90;;;;;;5093179;28;20047;-81
2022/12/09 00:12:34;;;;;;;46.17;24.17;;;-3.50;99.90;;;;;;5075067;28;20052;-82
2022/12/09 00:15:00;;;;;;;41.88;22.88;;;-3.50;99.90;;;;;;5092435;28;20032;-82
2022/12/09 00:17:26;;;;;;;43.38;23.15;;;-3.50;99.90;;;;;;5093231;28;20031;-82
2022/12/09 00:19:52;;;;;;;45.92;24.10;;;-3.50;99.90;;;;;;5092807;28;20496;-82
2022/12/09 00:22:18;;;;;;;57.28;29.98;;;-3.40;99.90;;;;;;5092896;28;20035;-82
2022/12/09 00:24:44;;;;;;;52.97;29.70;;;-3.40;99.90;;;;;;5088979;28;20047;-83
2022/12/09 00:27:09;;;;;;;61.38;29.80;;;-3.40;99.90;;;;;;5064830;28;20032;-83
2022/12/09 00:29:35;;;;;;;47.67;28.67;;;-3.40;99.90;;;;;;5093282;28;20020;-83
2022/12/09 00:32:01;;;;;;;58.90;30.30;;;-3.30;99.90;;;;;;5093164;28;20024;-83
2022/12/09 00:34:27;;;;;;;53.72;29.48;;;-3.30;99.90;;;;;;5093081;28;20180;-81
2022/12/09 00:36:53;;;;;;;51.17;25.90;;;-3.30;99.90;;;;;;5087906;28;20036;-81
2022/12/09 00:39:19;;;;;;;51.40;30.10;;;-3.20;99.90;;;;;;5085333;28;20106;-80
2022/12/09 00:41:45;;;;;;;51.95;29.02;;;-3.20;99.90;;;;;;5079369;28;20028;-82
2022/12/09 00:44:11;;;;;;;43.47;24.83;;;-3.20;99.90;;;;;;5106847;28;20016;-81
2022/12/09 00:46:37;;;;;;;51.65;28.98;;;-3.20;99.90;;;;;;5074443;28;20051;-82
2022/12/09 00:49:03;;;;;;;60.47;31.60;;;-3.20;99.90;;;;;;5093097;28;20485;-81
2022/12/09 00:51:29;;;;;;;59.22;30.27;;;-3.20;99.90;;;;;;5092798;28;20021;-83
2022/12/09 00:53:55;;;;;;;46.70;25.35;;;-3.20;99.90;;;;;;5092710;28;20408;-81
2022/12/09 00:56:27;;;;;;;38.95;22.83;;;-3.20;99.90;;;;;;5074566;28;20036;-83
2022/12/09 00:58:53;;;;;;;46.15;26.48;;;-3.20;99.90;;;;;;5077500;28;20050;-82
2022/12/09 01:01:20;;;;;;;42.63;24.77;;;-3.20;99.90;;;;;;5085580;28;20024;-83
2022/12/09 01:03:45;;;;;;;45.40;28.63;;;-3.10;99.90;;;;;;5077134;28;20036;-83
2022/12/09 01:06:16;;;;;;;36.42;21.33;;;-3.10;99.90;;;;;;5076639;28;20024;-83
2022/12/09 01:08:42;;;;;;;41.22;21.60;;;-3.00;99.90;;;;;;5075243;28;20490;-84
2022/12/09 01:11:10;;;;;;;35.78;18.67;;;-3.00;99.90;;;;;;5073229;28;20031;-82
2022/12/09 01:13:37;;;;;;;34.10;17.83;;;-3.00;99.90;;;;;;5092964;28;20432;-81
2022/12/09 01:16:03;;;;;;;35.58;17.55;;;-3.00;99.90;;;;;;5092181;28;20056;-82
2022/12/09 01:18:29;;;;;;;37.53;18.75;;;-3.10;99.90;;;;;;5090422;28;20363;-82
2022/12/09 01:20:56;;;;;;;35.08;17.38;;;-3.10;99.90;;;;;;5092231;28;20017;-81
2022/12/09 01:23:22;;;;;;;;;;;-3.10;99.90;;;;;;5086232;28;20032;-81
2022/12/09 01:25:48;;;;;;;34.05;16.77;;;-3.20;99.90;;;;;;5087128;28;19904;-80
2022/12/09 01:28:14;;;;;;;28.10;13.40;;;-3.20;99.90;;;;;;5071183;28;20043;-83
2022/12/09 01:30:39;;;;;;;24.20;11.88;;;-3.20;99.90;;;;;;5102313;28;20022;-81
2022/12/09 01:33:05;;;;;;;28.52;14.90;;;-3.20;99.90;;;;;;5110186;28;20467;-81
2022/12/09 01:35:31;;;;;;;28.65;16.10;;;-3.30;99.90;;;;;;5095087;28;20028;-81
2022/12/09 01:37:57;;;;;;;17.52;10.73;;;-3.30;99.90;;;;;;5083077;28;20024;-81
2022/12/09 01:40:23;;;;;;;20.65;9.70;;;-3.30;99.90;;;;;;5096713;28;20036;-80
2022/12/09 01:42:50;;;;;;;23.05;13.30;;;-3.30;99.90;;;;;;5082673;28;20020;-82
2022/12/09 01:45:19;;;;;;;15.65;9.52;;;-3.30;99.90;;;;;;5100841;28;20091;-81
2022/12/09 01:47:55;;;;;;;22.38;12.43;;;-3.30;99.90;;;;;;5101709;28;20512;-80
2022/12/09 01:50:21;;;;;;;25.58;15.10;;;-3.40;99.90;;;;;;5097546;28;20020;-80
2022/12/09 01:52:48;;;;;;;28.65;14.35;;;-3.40;99.90;;;;;;5096613;28;20024;-81
2022/12/09 01:55:15;;;;;;;25.23;15.75;;;-3.30;99.90;;;;;;5096777;28;20073;-81
2022/12/09 01:57:42;;;;;;;29.70;16.45;;;-3.30;99.90;;;;;;5096141;28;20032;-81
2022/12/09 02:00:08;;;;;;;38.65;15.63;;;-3.20;99.90;;;;;;5088621;28;20358;-82
2022/12/09 02:02:37;;;;;;;22.10;12.63;;;-3.30;99.90;;;;;;5089168;28;20405;-82
2022/12/09 02:05:04;;;;;;;22.23;12.63;;;-3.30;99.90;;;;;;5077464;28;20087;-80
2022/12/09 02:07:30;;;;;;;30.90;16.08;;;-3.30;99.90;;;;;;5096015;28;20523;-82
2022/12/09 02:09:56;;;;;;;24.55;12.60;;;-3.30;99.90;;;;;;5081637;28;20038;-80
2022/12/09 02:12:29;;;;;;;19.23;10.38;;;-3.30;99.90;;;;;;5098704;28;20096;-82
2022/12/09 02:15:05;;;;;;;22.38;11.73;;;-3.20;99.90;;;;;;5094525;28;20019;-82
2022/12/09 02:17:39;;;;;;;24.85;14.02;;;-3.30;99.90;;;;;;5095763;28;20031;-82
2022/12/09 02:20:36;;;;;;;21.95;13.90;;;-3.30;99.90;;;;;;5092218;28;20013;-82
2022/12/09 02:23:38;;;;;;;28.48;13.88;;;-3.30;99.90;;;;;;5089233;28;20444;-81
2022/12/09 02:26:37;;;;;;;24.67;13.80;;;-3.20;99.90;;;;;;5057303;28;20119;-81
2022/12/09 02:29:29;;;;;;;24.50;12.65;;;-3.20;99.90;;;;;;5080849;28;20024;-82
2022/12/09 02:32:07;;;;;;;23.17;14.18;;;-3.20;99.90;;;;;;5078718;28;20489;-83
2022/12/09 02:34:39;;;;;;;24.35;15.07;;;-3.20;99.90;;;;;;5098683;28;20389;-83
2022/12/09 02:37:16;;;;;;;23.95;14.05;;;-3.20;99.90;;;;;;5098140;28;20461;-84
2022/12/09 02:39:51;;;;;;;27.17;16.23;;;-3.20;99.90;;;;;;5095453;28;20099;-83
2022/12/09 02:42:20;;;;;;;29.45;16.30;;;-3.10;99.90;;;;;;5095743;28;20099;-82
2022/12/09 02:44:48;;;;;;;28.13;14.35;;;-3.10;99.90;;;;;;5095521;28;20021;-82
2022/12/09 02:47:18;;;;;;;33.35;15.93;;;-3.00;99.90;;;;;;5083285;28;20059;-82
2022/12/09 02:49:48;;;;;;;25.10;15.45;;;-3.00;99.90;;;;;;5096082;28;20088;-83
2022/12/09 02:52:16;;;;;;;33.28;21.85;;;-3.00;99.90;;;;;;5098674;28;20094;-81
2022/12/09 02:54:43;;;;;;;35.50;20.02;;;-2.90;99.90;;;;;;5088180;28;20127;-82
2022/12/09 02:57:19;;;;;;;38.30;20.33;;;-2.90;99.90;;;;;;5095101;28;20030;-81
2022/12/09 02:59:44;;;;;;;40.78;20.63;;;-2.90;99.90;;;;;;5093020;28;20023;-80
2022/12/09 03:02:20;;;;;;;33.03;19.08;;;-2.80;99.90;;;;;;5087158;28;20028;-81
2022/12/09 03:05:09;;;;;;;35.70;22.95;;;-2.80;99.90;;;;;;5088553;28;20051;-82
2022/12/09 03:07:44;;;;;;;34.08;19.55;;;-2.80;99.90;;;;;;5090076;28;20028;-81
2022/12/09 03:10:30;;;;;;;35.22;19.63;;;-2.80;99.90;;;;;;5079879;28;20020;-83
2022/12/09 03:13:14;;;;;;;35.35;21.73;;;-2.70;99.90;;;;;;5069815;28;20036;-81
2022/12/09 03:15:48;;;;;;;38.78;21.08;;;-2.70;99.90;;;;;;5100792;28;20028;-80
2022/12/09 03:18:17;;;;;;;35.53;20.85;;;-2.70;99.90;;;;;;5102005;28;20038;-82
2022/12/09 03:20:46;;;;;;;40.50;20.77;;;-2.60;99.90;;;;;;5099791;28;20028;-83
2022/12/09 03:23:15;;;;;;;35.72;21.10;;;-2.60;99.90;;;;;;5090244;28;20017;-81
2022/12/09 03:25:51;;;;;;;37.45;19.25;;;-2.60;99.90;;;;;;5084551;28;20031;-81
2022/12/09 03:28:30;;;;;;;37.13;18.40;;;-2.60;99.90;;;;;;5076432;28;20832;-82
2022/12/09 03:31:01;;;;;;;37.20;20.00;;;-2.60;99.90;;;;;;5082450;28;20038;-81
2022/12/09 03:33:29;;;;;;;33.08;18.45;;;-2.70;99.90;;;;;;5062114;28;20509;-81
2022/12/09 03:35:59;;;;;;;39.55;21.10;;;-2.80;99.90;;;;;;5076822;28;20120;-82
2022/12/09 03:38:30;;;;;;;42.13;19.48;;;-2.80;99.90;;;;;;5104107;28;20046;-81
2022/12/09 03:41:27;;;;;;;39.47;18.33;;;-2.70;99.90;;;;;;5096506;28;20024;-81
2022/12/09 03:44:02;;;;;;;40.53;20.13;;;-2.70;99.90;;;;;;5095104;28;20053;-81
2022/12/09 03:46:28;;;;;;;42.97;21.10;;;-2.70;99.90;;;;;;5097983;28;20114;-81
2022/12/09 03:48:56;;;;;;;43.33;21.73;;;-2.80;99.90;;;;;;5093510;28;20438;-80
2022/12/09 03:51:34;;;;;;;41.83;20.58;;;-2.70;99.90;;;;;;5093884;28;20020;-82
2022/12/09 03:54:12;;;;;;;39.80;21.92;;;-2.70;99.90;;;;;;5093400;28;20028;-81
2022/12/09 03:56:41;;;;;;;42.50;21.38;;;-2.80;99.90;;;;;;5075309;28;20468;-81
2022/12/09 03:59:13;;;;;;;47.95;24.05;;;-2.80;99.90;;;;;;5095308;28;20792;-85
2022/12/09 04:01:41;;;;;;;48.90;22.73;;;-2.80;99.90;;;;;;5095129;28;20111;-84
2022/12/09 04:04:07;;;;;;;50.97;22.80;;;-2.70;99.90;;;;;;5093447;28;20489;-83
2022/12/09 04:06:34;;;;;;;49.97;24.20;;;-2.70;99.90;;;;;;5093158;28;20047;-83
2022/12/09 04:09:03;;;;;;;48.00;24.63;;;-2.80;99.90;;;;;;5093529;28;20031;-85
2022/12/09 04:11:30;;;;;;;43.65;24.63;;;-2.80;99.90;;;;;;5093438;28;20008;-84
2022/12/09 04:13:56;;;;;;;60.25;28.80;;;-2.80;99.90;;;;;;5093540;28;20089;-84
2022/12/09 04:16:23;;;;;;;54.05;24.80;;;-2.90;99.90;;;;;;5093661;28;20020;-84
2022/12/09 04:18:49;;;;;;;45.10;23.13;;;-2.80;99.90;;;;;;5093221;28;20020;-84
2022/12/09 04:21:15;;;;;;;57.72;28.90;;;-2.80;99.90;;;;;;5093032;28;20384;-83
2022/12/09 04:23:44;;;;;;;66.63;28.85;;;-2.80;99.90;;;;;;5092773;28;20035;-84
2022/12/09 04:26:18;;;;;;;60.28;28.38;;;-2.80;99.90;;;;;;5092753;28;20024;-84
2022/12/09 04:28:44;;;;;;;60.08;29.88;;;-2.80;99.90;;;;;;5094460;28;20028;-83
2022/12/09 04:31:15;;;;;;;47.88;26.92;;;-2.80;99.90;;;;;;5075023;28;20031;-84
2022/12/09 04:33:42;;;;;;;62.17;30.73;;;-2.70;99.90;;;;;;5093550;28;20020;-83
2022/12/09 04:36:11;;;;;;;57.95;30.88;;;-2.70;99.90;;;;;;5095516;28;20020;-85
2022/12/09 04:38:38;;;;;;;66.18;30.05;;;-2.60;99.90;;;;;;5095562;28;20361;-84
2022/12/09 04:41:04;;;;;;;61.20;32.47;;;-2.60;99.90;;;;;;5101261;28;20020;-83
2022/12/09 04:43:30;;;;;;;55.10;29.33;;;-2.70;99.90;;;;;;5098815;28;20428;-83
2022/12/09 04:46:00;;;;;;;65.57;31.35;;;-2.70;99.90;;;;;;5093271;28;20097;-83
2022/12/09 04:48:27;;;;;;;68.05;32.92;;;-2.70;99.90;;;;;;5075193;28;20043;-85
2022/12/09 04:50:53;;;;;;;63.35;29.05;;;-2.80;99.90;;;;;;5077303;28;20035;-82
2022/12/09 04:53:19;;;;;;;63.33;29.58;;;-2.70;99.90;;;;;;5093774;28;20378;-82
2022/12/09 04:55:45;;;;;;;58.88;30.25;;;-2.70;99.90;;;;;;5080604;28;20020;-82
2022/12/09 04:58:10;;;;;;;50.58;25.23;;;-2.70;99.90;;;;;;5086887;28;20020;-84
2022/12/09 05:00:36;;;;;;;58.55;30.00;;;-2.70;99.90;;;;;;5104993;28;20098;-84
2022/12/09 05:03:02;;;;;;;65.47;28.77;;;-2.80;99.90;;;;;;5091455;28;20048;-85
2022/12/09 05:05:28;;;;;;;58.55;28.00;;;-2.80;99.90;;;;;;5072528;28;20029;-82
2022/12/09 05:07:54;;;;;;;70.82;30.83;;;-2.90;99.90;;;;;;5090689;28;20481;-84
2022/12/09 05:10:20;;;;;;;64.35;27.58;;;-2.90;99.90;;;;;;5094476;28;20028;-84
2022/12/09 05:12:45;;;;;;;61.67;26.38;;;-2.90;99.90;;;;;;5097388;28;20020;-83
2022/12/09 05:15:11;;;;;;;55.55;27.30;;;-3.00;99.90;;;;;;5109073;28;20028;-83
2022/12/09 05:17:37;;;;;;;67.82;32.03;;;-3.00;99.90;;;;;;5070742;28;20039;-83
2022/12/09 05:20:04;;;;;;;67.38;33.60;;;-3.00;99.90;;;;;;5086518;28;20437;-82
2022/12/09 05:22:29;;;;;;;67.97;30.88;;;-2.90;99.90;;;;;;5088855;28;20020;-83
2022/12/09 05:24:55;;;;;;;59.72;29.13;;;-2.90;99.90;;;;;;5082531;28;20019;-82
2022/12/09 05:27:21;;;;;;;68.63;32.45;;;-2.80;99.90;;;;;;5088580;28;20035;-83
2022/12/09 05:29:47;;;;;;;54.67;28.58;;;-2.80;99.90;;;;;;5096173;28;20089;-84
2022/12/09 05:32:13;;;;;;;65.25;32.47;;;-2.80;99.90;;;;;;5102880;28;20085;-83
2022/12/09 05:34:38;;;;;;;60.90;27.85;;;-2.80;99.90;;;;;;5100088;28;20020;-81
2022/12/09 05:37:05;;;;;;;76.43;32.88;;;-2.80;99.90;;;;;;5097002;28;20020;-84
2022/12/09 05:39:31;;;;;;;66.75;32.20;;;-2.80;99.90;;;;;;5095718;28;20144;-84
2022/12/09 05:41:57;;;;;;;69.05;31.60;;;-2.80;99.90;;;;;;5073979;28;20036;-82
2022/12/09 05:44:23;;;;;;;63.83;31.90;;;-2.70;99.90;;;;;;5092094;28;20158;-84
2022/12/09 05:46:49;;;;;;;74.25;35.50;;;-2.60;99.90;;;;;;5089891;28;20068;-84
2022/12/09 05:49:15;;;;;;;68.45;32.83;;;-2.60;99.90;;;;;;5092506;28;20116;-84
2022/12/09 05:51:40;;;;;;;60.72;31.20;;;-2.60;99.90;;;;;;5091870;28;20491;-82
2022/12/09 05:54:06;;;;;;;63.63;32.03;;;-2.50;99.90;;;;;;5073309;28;20055;-81
2022/12/09 05:56:32;;;;;;;65.15;32.70;;;-2.50;99.90;;;;;;5073887;28;20595;-83
2022/12/09 05:58:58;;;;;;;67.05;34.17;;;-2.40;99.90;;;;;;5091529;28;20027;-81
2022/12/09 06:01:25;;;;;;;72.13;36.13;;;-2.40;99.90;;;;;;5091682;28;20020;-82
2022/12/09 06:03:52;;;;;;;61.70;33.33;;;-2.30;99.90;;;;;;5073799;28;20458;-80
2022/12/09 06:06:20;;;;;;;59.95;26.98;;;-2.30;99.90;;;;;;5091929;28;20024;-82
2022/12/09 06:08:48;;;;;;;59.47;31.30;;;-2.20;99.90;;;;;;5092040;28;20381;-84
2022/12/09 06:11:17;;;;;;;60.05;31.23;;;-2.20;99.90;;;;;;5093544;28;20081;-82
2022/12/09 06:13:43;;;;;;;53.13;29.63;;;-2.20;99.90;;;;;;5099462;28;20030;-81
2022/12/09 06:16:10;;;;;;;61.45;31.33;;;-2.20;99.90;;;;;;5079073;28;20027;-83
2022/12/09 06:18:37;;;;;;;66.63;33.85;;;-2.20;99.90;;;;;;5095603;28;20020;-82
2022/12/09 06:21:07;;;;;;;55.80;29.30;;;-2.10;99.90;;;;;;5081351;28;20032;-82
2022/12/09 06:23:34;;;;;;;62.58;32.75;;;-2.20;99.90;;;;;;5095488;28;20065;-85
2022/12/09 06:26:01;;;;;;;50.47;28.88;;;-2.20;99.90;;;;;;5096249;28;20107;-84
2022/12/09 06:28:27;;;;;;;59.05;27.83;;;-2.20;99.90;;;;;;5093021;28;20036;-83
2022/12/09 06:30:52;;;;;;;49.92;29.55;;;-2.20;99.90;;;;;;5097315;28;20382;-84
2022/12/09 06:33:18;;;;;;;55.33;29.02;;;-2.30;99.90;;;;;;5078838;28;20076;-84
2022/12/09 06:35:44;;;;;;;57.90;29.20;;;-2.30;99.90;;;;;;5098458;28;20031;-84
2022/12/09 06:38:10;;;;;;;57.05;30.15;;;-2.40;99.90;;;;;;5096097;28;20024;-84
2022/12/09 06:40:40;;;;;;;54.22;28.83;;;-2.40;99.90;;;;;;5064469;28;20020;-83
2022/12/09 06:43:06;;;;;;;57.67;30.30;;;-2.30;99.90;;;;;;5103311;28;20065;-84
2022/12/09 06:45:34;;;;;;;56.08;28.40;;;-2.20;99.90;;;;;;5116703;28;20020;-84
2022/12/09 06:47:59;;;;;;;52.42;30.17;;;-2.20;99.90;;;;;;5101040;28;20051;-83
2022/12/09 06:50:25;;;;;;;58.53;30.98;;;-2.20;99.90;;;;;;5098053;28;20382;-83
2022/12/09 06:52:51;;;;;;;50.85;28.15;;;-2.20;99.90;;;;;;5081751;28;20050;-83
2022/12/09 06:55:17;;;;;;;57.63;29.73;;;-2.20;99.90;;;;;;5095882;28;20335;-84
2022/12/09 06:57:43;;;;;;;57.83;29.63;;;-2.10;99.90;;;;;;5077170;28;20432;-83
2022/12/09 07:00:09;;;;;;;65.82;33.50;;;-2.10;99.90;;;;;;5076811;28;20111;-84
2022/12/09 07:02:35;;;;;;;57.75;33.10;;;-2.00;99.90;;;;;;5093579;28;20044;-85
2022/12/09 07:05:01;;;;;;;51.28;29.10;;;-1.90;99.90;;;;;;5095040;28;20028;-83
2022/12/09 07:07:27;;;;;;;54.25;30.85;;;-1.80;99.90;;;;;;5093623;28;20044;-83
2022/12/09 07:09:53;;;;;;;54.10;31.50;;;-1.80;99.90;;;;;;5076593;28;20030;-83
2022/12/09 07:12:18;;;;;;;55.42;29.55;;;-1.80;99.90;;;;;;5096432;28;20051;-82
2022/12/09 07:14:44;;;;;;;50.50;31.27;;;-1.80;99.90;;;;;;5097320;28;20027;-83
2022/12/09 07:17:18;;;;;;;52.58;29.13;;;-1.80;99.90;;;;;;5104503;28;20039;-83
2022/12/09 07:19:47;;;;;;;55.10;29.38;;;-1.80;99.90;;;;;;5109470;28;20027;-83
2022/12/09 07:22:13;;;;;;;45.03;26.73;;;-1.80;99.90;;;;;;5071656;28;20029;-83
2022/12/09 07:24:42;;;;;;;54.50;29.20;;;-1.80;99.90;;;;;;5097932;28;20486;-90
2022/12/09 07:27:27;;;;;;;49.45;28.05;;;-1.90;99.90;;;;;;5071824;28;20043;-85
2022/12/09 07:29:53;;;;;;;46.38;27.27;;;-1.90;99.90;;;;;;5095889;28;20110;-83
2022/12/09 07:32:19;;;;;;;47.03;23.42;;;-1.90;99.90;;;;;;5073656;28;20670;-81
2022/12/09 07:34:44;;;;;;;48.28;26.13;;;-1.90;99.90;;;;;;5089332;28;20048;-82
2022/12/09 07:37:10;;;;;;;44.28;25.05;;;-2.10;99.90;;;;;;5088863;28;20016;-81
2022/12/09 07:39:36;;;;;;;52.90;28.55;;;-2.00;99.90;;;;;;5093322;28;20012;-83
2022/12/09 07:42:02;;;;;;;44.97;26.08;;;-2.00;99.90;;;;;;5095768;28;20020;-83
2022/12/09 07:44:28;;;;;;;46.22;26.98;;;-2.00;99.90;;;;;;5090576;28;20535;-83
2022/12/09 07:46:55;;;;;;;54.05;29.65;;;-2.00;99.90;;;;;;5093829;28;20063;-84
2022/12/09 07:49:21;;;;;;;49.10;27.40;;;-2.00;99.90;;;;;;5094018;28;20016;-84
2022/12/09 07:51:47;;;;;;;47.75;27.13;;;-2.00;99.90;;;;;;5094491;28;20020;-84
2022/12/09 07:54:15;;;;;;;52.38;29.02;;;-2.00;99.90;;;;;;5094256;28;20383;-83
2022/12/09 07:56:42;;;;;;;48.95;27.85;;;-2.00;99.90;;;;;;5059401;28;20027;-83
2022/12/09 07:59:12;;;;;;;37.83;18.83;;;-2.00;99.90;;;;;;5094217;28;20023;-84
2022/12/09 08:01:38;;;;;;;40.13;23.13;;;-1.90;99.90;;;;;;5075856;28;20167;-83
2022/12/09 08:04:05;;;;;;;50.95;25.13;;;-2.00;99.90;;;;;;5093049;28;20370;-83
2022/12/09 08:06:32;;;;;;;47.95;26.45;;;-2.00;99.90;;;;;;5090172;28;20012;-82
2022/12/09 08:09:00;;;;;;;47.53;26.10;;;-2.00;99.90;;;;;;5089400;28;20349;-83
2022/12/09 08:11:27;;;;;;;44.55;29.48;;;-1.90;99.90;;;;;;5070391;28;20543;-82
2022/12/09 08:13:57;;;;;;;;;;;-1.90;99.90;;;;;;5090183;28;20392;-82
2022/12/09 08:16:24;;;;;;;41.95;24.52;;;-1.90;99.90;;;;;;5100704;28;19915;-82
2022/12/09 08:18:51;;;;;;;46.58;26.63;;;-1.90;99.90;;;;;;5091813;28;20027;-82
2022/12/09 08:21:20;;;;;;;50.75;28.50;;;-1.90;99.90;;;;;;5092773;28;20024;-83
2022/12/09 08:23:47;;;;;;;48.95;24.42;;;-2.00;99.90;;;;;;5061097;28;20024;-80
2022/12/09 08:26:15;;;;;;;40.10;25.13;;;-2.00;99.90;;;;;;5093815;28;20027;-82
2022/12/09 08:28:41;;;;;;;46.28;24.05;;;-2.00;99.90;;;;;;5084453;28;20043;-82
2022/12/09 08:31:15;;;;;;;50.33;25.88;;;-2.10;99.90;;;;;;5095391;28;20088;-84
2022/12/09 08:33:42;;;;;;;44.55;28.30;;;-2.10;99.90;;;;;;5092713;28;20024;-82
2022/12/09 08:36:23;;;;;;;40.30;25.35;;;-2.10;99.90;;;;;;5092125;28;20031;-82
2022/12/09 08:38:50;;;;;;;46.70;23.88;;;-2.00;99.90;;;;;;5092961;28;20443;-81
2022/12/09 08:41:36;;;;;;;51.92;28.42;;;-2.00;99.90;;;;;;5074713;28;20469;-82
2022/12/09 08:44:06;;;;;;;39.67;23.95;;;-1.90;99.90;;;;;;5092637;28;20012;-83
2022/12/09 08:46:33;;;;;;;51.22;31.67;;;-1.90;99.90;;;;;;5092581;28;20028;-82
2022/12/09 08:49:00;;;;;;;45.95;26.30;;;-1.80;99.90;;;;;;5092398;28;20024;-82
2022/12/09 08:51:27;;;;;;;45.30;29.67;;;-1.80;99.90;;;;;;5092866;28;20020;-81
2022/12/09 08:53:54;;;;;;;47.22;27.17;;;-1.80;99.90;;;;;;5093440;28;20114;-83
2022/12/09 08:56:20;;;;;;;49.38;26.50;;;-1.80;99.90;;;;;;5094015;28;20024;-83
2022/12/09 08:58:47;;;;;;;45.33;26.70;;;-1.70;99.90;;;;;;5093107;28;20024;-81
2022/12/09 09:01:19;;;;;;;46.22;24.75;;;-1.70;99.90;;;;;;5079115;28;20024;-83
2022/12/09 09:03:45;;;;;;;50.22;29.65;;;-1.70;99.90;;;;;;5092777;28;20396;-83
2022/12/09 09:06:12;;;;;;;52.40;27.93;;;-1.70;99.90;;;;;;5093139;28;20488;-82
2022/12/09 09:08:38;;;;;;;45.67;26.45;;;-1.70;99.90;;;;;;5093377;28;20285;-84
2022/12/09 09:11:09;;;;;;;47.63;24.30;;;-1.70;99.90;;;;;;5095296;28;20063;-81
2022/12/09 09:13:39;;;;;;;43.45;24.35;;;-1.70;99.90;;;;;;5096495;28;20037;-83
2022/12/09 09:16:12;;;;;;;44.35;23.98;;;-1.70;99.90;;;;;;5097310;28;20087;-82
2022/12/09 09:18:38;;;;;;;45.22;22.90;;;-1.80;99.90;;;;;;5103291;28;20012;-83
2022/12/09 09:21:06;;;;;;;42.75;24.27;;;-1.90;99.90;;;;;;5099071;28;20024;-83
2022/12/09 09:23:32;;;;;;;38.95;24.92;;;-1.80;99.90;;;;;;5095617;28;20342;-85
2022/12/09 09:25:58;;;;;;;48.75;25.25;;;-1.90;99.90;;;;;;5094100;28;20159;-84
2022/12/09 09:28:24;;;;;;;48.97;24.50;;;-1.90;99.90;;;;;;5078124;28;20064;-82
2022/12/09 09:31:00;;;;;;;50.53;25.75;;;-1.80;99.90;;;;;;5092181;28;20023;-83
2022/12/09 09:33:27;;;;;;;36.50;22.13;;;-1.80;99.90;;;;;;5092059;28;20421;-82
2022/12/09 09:36:01;;;;;;;44.05;24.50;;;-1.80;99.90;;;;;;5092643;28;20059;-82
2022/12/09 09:38:27;;;;;;;45.50;26.10;;;-1.90;99.90;;;;;;5092085;28;20048;-84
2022/12/09 09:40:54;;;;;;;42.20;25.70;;;-1.90;99.90;;;;;;5077806;28;20032;-83
2022/12/09 09:43:24;;;;;;;45.85;23.10;;;-1.80;99.90;;;;;;5092487;28;20016;-83
2022/12/09 09:45:53;;;;;;;42.15;23.95;;;-1.70;99.90;;;;;;5098361;28;20035;-83
2022/12/09 09:48:27;;;;;;;45.08;25.48;;;-1.70;99.90;;;;;;5099976;28;20063;-82
2022/12/09 09:51:08;;;;;;;44.28;24.77;;;-1.70;99.90;;;;;;5077651;28;20118;-82
2022/12/09 09:53:34;;;;;;;42.22;25.52;;;-1.60;99.90;;;;;;5095980;28;20016;-83
2022/12/09 09:56:05;;;;;;;43.28;23.95;;;-1.60;99.90;;;;;;5077634;28;20023;-84
2022/12/09 09:58:31;;;;;;;44.67;22.63;;;-1.60;99.90;;;;;;5096120;28;20438;-82
2022/12/09 10:01:11;;;;;;;41.00;22.63;;;-1.60;99.90;;;;;;5095965;28;20051;-83
2022/12/09 10:03:46;;;;;;;44.28;26.80;;;-1.60;99.90;;;;;;5084876;28;20052;-83
2022/12/09 10:06:27;;;;;;;37.40;22.20;;;-1.60;99.90;;;;;;5094121;28;20358;-82
2022/12/09 10:08:57;;;;;;;40.13;23.23;;;-1.60;99.90;;;;;;5084579;28;20116;-83
2022/12/09 10:11:33;;;;;;;43.40;24.40;;;-1.60;99.90;;;;;;5105928;28;20385;-83
2022/12/09 10:14:14;;;;;;;42.78;23.10;;;-1.60;99.90;;;;;;5104311;28;20020;-84
2022/12/09 10:16:46;;;;;;;42.97;23.63;;;-1.60;99.90;;;;;;5097445;28;20016;-84
2022/12/09 10:19:31;;;;;;;41.72;23.92;;;-1.60;99.90;;;;;;5077845;28;20082;-84
2022/12/09 10:22:00;;;;;;;52.03;28.23;;;-1.50;99.90;;;;;;5095903;28;20035;-84
2022/12/09 10:24:32;;;;;;;44.55;24.20;;;-1.50;99.90;;;;;;5081206;28;20177;-84
2022/12/09 10:27:01;;;;;;;41.13;25.23;;;-1.40;99.90;;;;;;5095593;28;20089;-83
2022/12/09 10:29:58;;;;;;;37.83;22.90;;;-1.50;99.90;;;;;;5095391;28;20097;-83
2022/12/09 10:32:31;;;;;;;35.88;22.58;;;-1.40;99.90;;;;;;5068615;28;20028;-83
2022/12/09 10:34:57;;;;;;;40.00;21.45;;;-1.40;99.90;;;;;;5097564;28;20046;-84
2022/12/09 10:37:28;;;;;;;39.05;22.77;;;-1.40;99.90;;;;;;5066809;28;20119;-83
2022/12/09 10:40:25;;;;;;;39.45;21.65;;;-1.50;99.90;;;;;;5097620;28;20110;-84
2022/12/09 10:45:45;;;;;;;36.90;21.75;;;-1.40;99.90;;;;;;5094934;28;19968;-83
2022/12/09 10:48:28;;;;;;;40.40;22.85;;;-1.40;99.90;;;;;;5094759;28;20036;-82
2022/12/09 10:51:21;;;;;;;33.92;20.30;;;-1.50;99.90;;;;;;5076894;28;20042;-82
2022/12/09 10:53:50;;;;;;;40.88;22.40;;;-1.50;99.90;;;;;;5080280;28;20040;-82
2022/12/09 10:56:24;;;;;;;31.73;19.63;;;-1.50;99.90;;;;;;5095203;28;20020;-84
2022/12/09 10:59:25;;;;;;;42.42;21.52;;;-1.60;99.90;;;;;;5095432;28;20020;-83
2022/12/09 11:02:01;;;;;;;34.60;20.27;;;-1.60;99.90;;;;;;5103588;28;20083;-84
2022/12/09 11:04:33;;;;;;;33.53;20.55;;;-1.60;99.90;;;;;;5073950;28;20048;-85
2022/12/09 11:07:10;;;;;;;41.38;22.42;;;-1.60;99.90;;;;;;5078615;28;20406;-83
2022/12/09 11:09:42;;;;;;;30.83;18.55;;;-1.50;99.90;;;;;;5082370;28;20037;-83
2022/12/09 11:12:26;;;;;;;34.53;21.52;;;-1.50;99.90;;;;;;5081986;28;20024;-83
2022/12/09 11:15:18;;;;;;;42.20;22.58;;;-1.40;99.90;;;;;;5076180;28;20039;-83
2022/12/09 11:17:59;;;;;;;33.47;19.10;;;-1.40;99.90;;;;;;5081407;28;20032;-82
2022/12/09 11:20:30;;;;;;;35.33;20.00;;;-1.40;99.90;;;;;;5068407;28;20045;-83
2022/12/09 11:23:11;;;;;;;43.53;19.67;;;-1.50;99.90;;;;;;5073694;28;20543;-83
2022/12/09 11:25:37;;;;;;;33.28;19.98;;;-1.60;99.90;;;;;;5065893;28;20021;-82
2022/12/09 11:28:15;;;;;;;36.97;19.55;;;-1.70;99.90;;;;;;5069932;28;20355;-83
2022/12/09 11:31:17;;;;;;;29.83;18.67;;;-1.70;99.90;;;;;;5059900;28;20021;-83
2022/12/09 11:33:52;;;;;;;36.03;21.83;;;-1.70;99.90;;;;;;5073259;28;20041;-84
2022/12/09 11:36:22;;;;;;;36.70;21.67;;;-1.60;99.90;;;;;;5073771;28;20508;-83
2022/12/09 11:38:51;;;;;;;39.92;21.17;;;-1.60;99.90;;;;;;5073750;28;20132;-82
2022/12/09 11:44:28;;;;;;;36.55;21.70;;;-1.70;99.90;;;;;;5073898;28;20130;-82
2022/12/09 11:47:26;;;;;;;34.03;19.80;;;-1.60;99.90;;;;;;5072770;28;20091;-82
2022/12/09 11:49:57;;;;;;;39.75;21.98;;;-1.70;99.90;;;;;;5064316;28;20360;-83
2022/12/09 11:52:31;;;;;;;38.42;21.70;;;-1.70;99.90;;;;;;5055723;28;20172;-83
2022/12/09 11:55:33;;;;;;;31.77;19.75;;;-1.70;99.90;;;;;;5074985;28;20024;-83
2022/12/09 11:58:05;;;;;;;31.13;17.92;;;-1.80;99.90;;;;;;5045654;28;20032;-83
2022/12/09 12:01:16;;;;;;;38.67;20.15;;;-1.80;99.90;;;;;;5073553;28;20471;-83
2022/12/09 12:03:47;;;;;;;32.22;17.55;;;-1.90;99.90;;;;;;5031475;28;20055;-82
2022/12/09 12:06:26;;;;;;;34.10;21.27;;;-1.90;99.90;;;;;;5051399;28;20176;-83
2022/12/09 12:09:01;;;;;;;36.42;20.15;;;-1.90;99.90;;;;;;5051719;28;20402;-81
2022/12/09 12:11:35;;;;;;;37.65;22.55;;;-1.90;99.90;;;;;;5052847;28;20424;-82
2022/12/09 12:14:16;;;;;;;36.70;20.83;;;-1.80;99.90;;;;;;5052889;28;20461;-82
2022/12/09 12:16:54;;;;;;;36.45;21.73;;;-1.80;99.90;;;;;;5053069;28;20127;-82
2022/12/09 12:19:34;;;;;;;35.72;19.10;;;-1.80;99.90;;;;;;5053013;28;20020;-83
2022/12/09 12:22:06;;;;;;;29.08;18.98;;;-1.80;99.90;;;;;;5053401;28;20355;-84
2022/12/09 12:25:04;;;;;;;36.45;19.40;;;-1.80;99.90;;;;;;5051620;28;20093;-83
2022/12/09 12:27:54;;;;;;;35.63;19.45;;;-1.80;99.90;;;;;;5050230;28;20119;-82
2022/12/09 12:30:23;;;;;;;37.47;21.33;;;-1.90;99.90;;;;;;5052884;28;20016;-83
2022/12/09 12:33:19;;;;;;;35.38;20.80;;;-1.90;99.90;;;;;;5053140;28;20029;-84
2022/12/09 12:35:56;;;;;;;34.38;18.67;;;-2.00;99.90;;;;;;5034768;28;20032;-83
2022/12/09 12:38:49;;;;;;;33.40;19.67;;;-2.00;99.90;;;;;;5046209;28;20021;-82
2022/12/09 12:41:25;;;;;;;30.85;17.70;;;-2.10;99.90;;;;;;5052814;28;20017;-82
2022/12/09 12:47:09;;;;;;;27.27;17.58;;;-2.20;99.90;;;;;;5063553;28;20040;-82
2022/12/09 12:49:54;;;;;;;32.38;19.30;;;-2.30;99.90;;;;;;5045017;28;20328;-83
2022/12/09 12:52:45;;;;;;;35.28;16.33;;;-2.30;99.90;;;;;;5048381;28;20021;-84
2022/12/09 12:55:17;;;;;;;30.13;18.38;;;-2.30;99.90;;;;;;5052643;28;20382;-82